sensor_id;sensor_type;location;lat;lon;timestamp;P1;durP1;ratioP1;P2;durP2;ratioP2
16153;SDS011;8182;55.648;13.208;2022-07-23T00:00:30;10.13;;;2.53;;
16153;SDS011;8182;55.648;13.208;2022-07-23T00:02:58;11.47;;;2.90;;
16153;SDS011;8182;55.648;13.208;2022-07-23T00:05:25;10.23;;;2.67;;
16153;SDS011;8182;55.648;13.208;2022-07-23T00:07:53;11.77;;;2.87;;
16153;SDS011;8182;55.648;13.208;2022-07-23T00:10:25;10.30;;;2.77;;
16153;SDS011;8182;55.648;13.208;2022-07-23T00:12:52;9.07;;;2.87;;
16153;SDS011;8182;55.648;13.208;2022-07-23T00:15:19;7.77;;;2.60;;
16153;SDS011;8182;55.648;13.208;2022-07-23T00:17:46;6.67;;;2.60;;
16153;SDS011;8182;55.648;13.208;2022-07-23T00:20:14;9.70;;;3.20;;
16153;SDS011;8182;55.648;13.208;2022-07-23T00:22:45;7.43;;;2.87;;
16153;SDS011;8182;55.648;13.208;2022-07-23T00:25:13;9.87;;;2.60;;
16153;SDS011;8182;55.648;13.208;2022-07-23T00:27:42;7.73;;;2.63;;
16153;SDS011;8182;55.648;13.208;2022-07-23T00:30:10;8.87;;;2.60;;
16153;SDS011;8182;55.648;13.208;2022-07-23T00:32:45;8.13;;;2.50;;
16153;SDS011;8182;55.648;13.208;2022-07-23T00:35:13;10.23;;;2.73;;
16153;SDS011;8182;55.648;13.208;2022-07-23T00:37:41;8.93;;;2.53;;
16153;SDS011;8182;55.648;13.208;2022-07-23T00:40:10;9.50;;;3.17;;
16153;SDS011;8182;55.648;13.208;2022-07-23T00:42:37;10.13;;;2.97;;
16153;SDS011;8182;55.648;13.208;2022-07-23T00:45:07;11.27;;;3.07;;
16153;SDS011;8182;55.648;13.208;2022-07-23T00:47:34;7.23;;;2.70;;
16153;SDS011;8182;55.648;13.208;2022-07-23T00:50:03;6.07;;;2.60;;
16153;SDS011;8182;55.648;13.208;2022-07-23T00:52:32;7.03;;;2.47;;
16153;SDS011;8182;55.648;13.208;2022-07-23T00:54:59;6.43;;;2.70;;
16153;SDS011;8182;55.648;13.208;2022-07-23T00:57:27;8.17;;;2.50;;
16153;SDS011;8182;55.648;13.208;2022-07-23T00:59:54;7.23;;;2.40;;
16153;SDS011;8182;55.648;13.208;2022-07-23T01:02:24;7.67;;;2.33;;
16153;SDS011;8182;55.648;13.208;2022-07-23T01:04:51;7.70;;;2.40;;
16153;SDS011;8182;55.648;13.208;2022-07-23T01:07:19;6.73;;;2.37;;
16153;SDS011;8182;55.648;13.208;2022-07-23T01:09:48;9.43;;;2.67;;
16153;SDS011;8182;55.648;13.208;2022-07-23T01:12:15;5.70;;;2.50;;
16153;SDS011;8182;55.648;13.208;2022-07-23T01:14:43;7.97;;;2.37;;
16153;SDS011;8182;55.648;13.208;2022-07-23T01:17:10;5.07;;;2.37;;
16153;SDS011;8182;55.648;13.208;2022-07-23T01:19:39;5.77;;;2.30;;
16153;SDS011;8182;55.648;13.208;2022-07-23T01:22:06;4.33;;;2.40;;
16153;SDS011;8182;55.648;13.208;2022-07-23T01:24:34;8.67;;;2.30;;
16153;SDS011;8182;55.648;13.208;2022-07-23T01:27:02;8.93;;;2.40;;
16153;SDS011;8182;55.648;13.208;2022-07-23T01:29:30;7.40;;;2.30;;
16153;SDS011;8182;55.648;13.208;2022-07-23T01:31:57;5.17;;;2.30;;
16153;SDS011;8182;55.648;13.208;2022-07-23T01:34:25;6.80;;;2.40;;
16153;SDS011;8182;55.648;13.208;2022-07-23T01:36:55;8.50;;;2.50;;
16153;SDS011;8182;55.648;13.208;2022-07-23T01:39:23;7.83;;;2.43;;
16153;SDS011;8182;55.648;13.208;2022-07-23T01:41:51;5.90;;;2.20;;
16153;SDS011;8182;55.648;13.208;2022-07-23T01:44:18;8.23;;;2.43;;
16153;SDS011;8182;55.648;13.208;2022-07-23T01:46:45;7.43;;;2.23;;
16153;SDS011;8182;55.648;13.208;2022-07-23T01:49:14;4.97;;;2.40;;
16153;SDS011;8182;55.648;13.208;2022-07-23T01:51:41;6.80;;;2.30;;
16153;SDS011;8182;55.648;13.208;2022-07-23T01:54:22;5.33;;;2.27;;
16153;SDS011;8182;55.648;13.208;2022-07-23T01:56:50;6.90;;;2.53;;
16153;SDS011;8182;55.648;13.208;2022-07-23T01:59:18;6.63;;;2.00;;
16153;SDS011;8182;55.648;13.208;2022-07-23T02:01:46;6.43;;;2.53;;
16153;SDS011;8182;55.648;13.208;2022-07-23T02:04:14;7.40;;;2.53;;
16153;SDS011;8182;55.648;13.208;2022-07-23T02:06:47;8.43;;;2.90;;
16153;SDS011;8182;55.648;13.208;2022-07-23T02:09:20;8.43;;;2.57;;
16153;SDS011;8182;55.648;13.208;2022-07-23T02:11:47;6.43;;;2.23;;
16153;SDS011;8182;55.648;13.208;2022-07-23T02:14:16;6.80;;;2.47;;
16153;SDS011;8182;55.648;13.208;2022-07-23T02:16:44;9.10;;;2.80;;
16153;SDS011;8182;55.648;13.208;2022-07-23T02:19:14;8.30;;;2.57;;
16153;SDS011;8182;55.648;13.208;2022-07-23T02:21:41;5.83;;;2.50;;
16153;SDS011;8182;55.648;13.208;2022-07-23T02:24:08;6.93;;;2.43;;
16153;SDS011;8182;55.648;13.208;2022-07-23T02:26:36;6.43;;;2.30;;
16153;SDS011;8182;55.648;13.208;2022-07-23T02:29:03;10.03;;;2.90;;
16153;SDS011;8182;55.648;13.208;2022-07-23T02:31:32;7.80;;;2.43;;
16153;SDS011;8182;55.648;13.208;2022-07-23T02:34:03;5.40;;;2.60;;
16153;SDS011;8182;55.648;13.208;2022-07-23T02:36:30;9.50;;;2.80;;
16153;SDS011;8182;55.648;13.208;2022-07-23T02:38:57;7.53;;;2.57;;
16153;SDS011;8182;55.648;13.208;2022-07-23T02:41:25;8.00;;;2.80;;
16153;SDS011;8182;55.648;13.208;2022-07-23T02:43:52;5.43;;;2.40;;
16153;SDS011;8182;55.648;13.208;2022-07-23T02:46:18;5.20;;;2.50;;
16153;SDS011;8182;55.648;13.208;2022-07-23T02:48:47;6.17;;;2.90;;
16153;SDS011;8182;55.648;13.208;2022-07-23T02:51:14;4.37;;;2.30;;
16153;SDS011;8182;55.648;13.208;2022-07-23T02:53:41;5.60;;;2.87;;
16153;SDS011;8182;55.648;13.208;2022-07-23T02:56:09;7.47;;;2.50;;
16153;SDS011;8182;55.648;13.208;2022-07-23T02:58:36;4.10;;;2.47;;
16153;SDS011;8182;55.648;13.208;2022-07-23T03:01:03;7.50;;;2.97;;
16153;SDS011;8182;55.648;13.208;2022-07-23T03:03:31;5.07;;;2.80;;
16153;SDS011;8182;55.648;13.208;2022-07-23T03:06:00;6.87;;;2.60;;
16153;SDS011;8182;55.648;13.208;2022-07-23T03:08:27;6.33;;;2.80;;
16153;SDS011;8182;55.648;13.208;2022-07-23T03:10:55;7.63;;;2.90;;
16153;SDS011;8182;55.648;13.208;2022-07-23T03:13:23;7.20;;;2.53;;
16153;SDS011;8182;55.648;13.208;2022-07-23T03:15:51;9.17;;;2.70;;
16153;SDS011;8182;55.648;13.208;2022-07-23T03:18:18;8.90;;;3.13;;
16153;SDS011;8182;55.648;13.208;2022-07-23T03:20:45;6.83;;;3.00;;
16153;SDS011;8182;55.648;13.208;2022-07-23T03:23:14;9.07;;;2.73;;
16153;SDS011;8182;55.648;13.208;2022-07-23T03:25:42;8.37;;;3.00;;
16153;SDS011;8182;55.648;13.208;2022-07-23T03:28:12;11.10;;;3.30;;
16153;SDS011;8182;55.648;13.208;2022-07-23T03:30:41;8.07;;;2.90;;
16153;SDS011;8182;55.648;13.208;2022-07-23T03:33:10;9.05;;;3.47;;
16153;SDS011;8182;55.648;13.208;2022-07-23T03:35:38;8.80;;;3.03;;
16153;SDS011;8182;55.648;13.208;2022-07-23T03:38:09;11.13;;;3.37;;
16153;SDS011;8182;55.648;13.208;2022-07-23T03:40:38;6.73;;;3.03;;
16153;SDS011;8182;55.648;13.208;2022-07-23T03:43:07;8.00;;;3.33;;
16153;SDS011;8182;55.648;13.208;2022-07-23T03:45:34;8.80;;;3.10;;
16153;SDS011;8182;55.648;13.208;2022-07-23T03:48:02;8.67;;;3.87;;
16153;SDS011;8182;55.648;13.208;2022-07-23T03:50:30;11.27;;;3.60;;
16153;SDS011;8182;55.648;13.208;2022-07-23T03:52:57;10.57;;;3.57;;
16153;SDS011;8182;55.648;13.208;2022-07-23T03:55:24;9.93;;;3.77;;
16153;SDS011;8182;55.648;13.208;2022-07-23T03:57:53;11.43;;;3.60;;
16153;SDS011;8182;55.648;13.208;2022-07-23T04:00:20;10.33;;;3.50;;
16153;SDS011;8182;55.648;13.208;2022-07-23T04:02:47;12.70;;;4.00;;
16153;SDS011;8182;55.648;13.208;2022-07-23T04:05:14;10.73;;;4.30;;
16153;SDS011;8182;55.648;13.208;2022-07-23T04:07:41;8.47;;;3.90;;
16153;SDS011;8182;55.648;13.208;2022-07-23T04:10:10;7.80;;;3.70;;
16153;SDS011;8182;55.648;13.208;2022-07-23T04:12:37;10.50;;;3.90;;
16153;SDS011;8182;55.648;13.208;2022-07-23T04:15:06;10.67;;;3.67;;
16153;SDS011;8182;55.648;13.208;2022-07-23T04:17:34;12.47;;;3.93;;
16153;SDS011;8182;55.648;13.208;2022-07-23T04:20:01;9.73;;;3.73;;
16153;SDS011;8182;55.648;13.208;2022-07-23T04:22:28;8.53;;;3.90;;
16153;SDS011;8182;55.648;13.208;2022-07-23T04:24:57;8.37;;;3.40;;
16153;SDS011;8182;55.648;13.208;2022-07-23T04:27:24;6.97;;;3.80;;
16153;SDS011;8182;55.648;13.208;2022-07-23T04:29:51;9.03;;;3.87;;
16153;SDS011;8182;55.648;13.208;2022-07-23T04:32:20;7.77;;;4.00;;
16153;SDS011;8182;55.648;13.208;2022-07-23T04:34:47;7.60;;;3.90;;
16153;SDS011;8182;55.648;13.208;2022-07-23T04:37:13;6.93;;;3.67;;
16153;SDS011;8182;55.648;13.208;2022-07-23T04:39:40;7.13;;;3.77;;
16153;SDS011;8182;55.648;13.208;2022-07-23T04:42:08;7.20;;;3.77;;
16153;SDS011;8182;55.648;13.208;2022-07-23T04:44:34;10.07;;;4.03;;
16153;SDS011;8182;55.648;13.208;2022-07-23T04:47:02;5.33;;;3.13;;
16153;SDS011;8182;55.648;13.208;2022-07-23T04:49:31;7.50;;;3.43;;
16153;SDS011;8182;55.648;13.208;2022-07-23T04:51:58;5.57;;;3.37;;
16153;SDS011;8182;55.648;13.208;2022-07-23T04:54:25;8.70;;;3.30;;
16153;SDS011;8182;55.648;13.208;2022-07-23T04:56:52;5.83;;;3.00;;
16153;SDS011;8182;55.648;13.208;2022-07-23T04:59:19;4.13;;;2.63;;
16153;SDS011;8182;55.648;13.208;2022-07-23T05:01:46;6.10;;;2.70;;
16153;SDS011;8182;55.648;13.208;2022-07-23T05:04:14;6.50;;;3.00;;
16153;SDS011;8182;55.648;13.208;2022-07-23T05:06:42;4.37;;;2.60;;
16153;SDS011;8182;55.648;13.208;2022-07-23T05:09:09;3.60;;;2.43;;
16153;SDS011;8182;55.648;13.208;2022-07-23T05:11:37;4.53;;;2.60;;
16153;SDS011;8182;55.648;13.208;2022-07-23T05:14:04;3.93;;;2.50;;
16153;SDS011;8182;55.648;13.208;2022-07-23T05:16:31;4.93;;;2.53;;
16153;SDS011;8182;55.648;13.208;2022-07-23T05:18:59;4.40;;;2.70;;
16153;SDS011;8182;55.648;13.208;2022-07-23T05:21:26;5.37;;;2.70;;
16153;SDS011;8182;55.648;13.208;2022-07-23T05:23:55;3.50;;;2.83;;
16153;SDS011;8182;55.648;13.208;2022-07-23T05:26:22;5.03;;;2.43;;
16153;SDS011;8182;55.648;13.208;2022-07-23T05:28:49;5.27;;;2.53;;
16153;SDS011;8182;55.648;13.208;2022-07-23T05:31:16;4.37;;;2.60;;
16153;SDS011;8182;55.648;13.208;2022-07-23T05:33:47;4.03;;;2.43;;
16153;SDS011;8182;55.648;13.208;2022-07-23T05:36:14;3.20;;;2.50;;
16153;SDS011;8182;55.648;13.208;2022-07-23T05:38:40;2.97;;;2.50;;
16153;SDS011;8182;55.648;13.208;2022-07-23T05:41:09;2.97;;;2.23;;
16153;SDS011;8182;55.648;13.208;2022-07-23T05:43:36;3.53;;;2.27;;
16153;SDS011;8182;55.648;13.208;2022-07-23T05:46:03;4.17;;;2.20;;
16153;SDS011;8182;55.648;13.208;2022-07-23T05:48:31;3.80;;;2.50;;
16153;SDS011;8182;55.648;13.208;2022-07-23T05:50:59;5.10;;;2.13;;
16153;SDS011;8182;55.648;13.208;2022-07-23T05:53:28;4.07;;;2.13;;
16153;SDS011;8182;55.648;13.208;2022-07-23T05:55:55;3.17;;;2.10;;
16153;SDS011;8182;55.648;13.208;2022-07-23T05:58:23;3.40;;;2.00;;
16153;SDS011;8182;55.648;13.208;2022-07-23T06:00:51;2.97;;;1.77;;
16153;SDS011;8182;55.648;13.208;2022-07-23T06:03:18;2.03;;;1.83;;
16153;SDS011;8182;55.648;13.208;2022-07-23T06:05:45;2.17;;;1.83;;
16153;SDS011;8182;55.648;13.208;2022-07-23T06:08:14;5.60;;;2.40;;
16153;SDS011;8182;55.648;13.208;2022-07-23T06:10:41;3.60;;;2.00;;
16153;SDS011;8182;55.648;13.208;2022-07-23T06:13:08;2.33;;;1.77;;
16153;SDS011;8182;55.648;13.208;2022-07-23T06:15:36;3.57;;;1.80;;
16153;SDS011;8182;55.648;13.208;2022-07-23T06:18:03;2.70;;;1.90;;
16153;SDS011;8182;55.648;13.208;2022-07-23T06:20:30;3.00;;;1.83;;
16153;SDS011;8182;55.648;13.208;2022-07-23T06:22:58;2.03;;;1.80;;
16153;SDS011;8182;55.648;13.208;2022-07-23T06:25:30;2.90;;;1.77;;
16153;SDS011;8182;55.648;13.208;2022-07-23T06:27:57;3.20;;;1.70;;
16153;SDS011;8182;55.648;13.208;2022-07-23T06:30:25;2.77;;;1.60;;
16153;SDS011;8182;55.648;13.208;2022-07-23T06:32:54;2.00;;;1.63;;
16153;SDS011;8182;55.648;13.208;2022-07-23T06:35:21;2.97;;;1.63;;
16153;SDS011;8182;55.648;13.208;2022-07-23T06:37:48;2.77;;;1.70;;
16153;SDS011;8182;55.648;13.208;2022-07-23T06:40:15;2.33;;;1.70;;
16153;SDS011;8182;55.648;13.208;2022-07-23T06:42:43;2.07;;;1.70;;
16153;SDS011;8182;55.648;13.208;2022-07-23T06:45:10;4.13;;;1.60;;
16153;SDS011;8182;55.648;13.208;2022-07-23T06:47:38;2.37;;;1.50;;
16153;SDS011;8182;55.648;13.208;2022-07-23T06:50:08;2.13;;;1.50;;
16153;SDS011;8182;55.648;13.208;2022-07-23T06:52:36;2.27;;;1.27;;
16153;SDS011;8182;55.648;13.208;2022-07-23T06:55:06;1.50;;;1.33;;
16153;SDS011;8182;55.648;13.208;2022-07-23T06:57:33;2.07;;;1.30;;
16153;SDS011;8182;55.648;13.208;2022-07-23T07:00:00;1.80;;;1.20;;
16153;SDS011;8182;55.648;13.208;2022-07-23T07:02:27;1.33;;;1.10;;
16153;SDS011;8182;55.648;13.208;2022-07-23T07:04:54;3.43;;;1.30;;
16153;SDS011;8182;55.648;13.208;2022-07-23T07:07:23;1.63;;;1.20;;
16153;SDS011;8182;55.648;13.208;2022-07-23T07:09:50;1.73;;;1.30;;
16153;SDS011;8182;55.648;13.208;2022-07-23T07:12:18;2.10;;;1.40;;
16153;SDS011;8182;55.648;13.208;2022-07-23T07:14:45;3.30;;;1.40;;
16153;SDS011;8182;55.648;13.208;2022-07-23T07:17:12;2.73;;;1.50;;
16153;SDS011;8182;55.648;13.208;2022-07-23T07:19:40;2.37;;;1.50;;
16153;SDS011;8182;55.648;13.208;2022-07-23T07:22:07;2.83;;;1.30;;
16153;SDS011;8182;55.648;13.208;2022-07-23T07:24:36;2.13;;;1.30;;
16153;SDS011;8182;55.648;13.208;2022-07-23T07:27:03;2.73;;;1.53;;
16153;SDS011;8182;55.648;13.208;2022-07-23T07:29:30;3.27;;;1.43;;
16153;SDS011;8182;55.648;13.208;2022-07-23T07:31:58;1.87;;;1.37;;
16153;SDS011;8182;55.648;13.208;2022-07-23T07:34:25;1.83;;;1.40;;
16153;SDS011;8182;55.648;13.208;2022-07-23T07:36:53;1.80;;;1.20;;
16153;SDS011;8182;55.648;13.208;2022-07-23T07:39:20;1.80;;;1.13;;
16153;SDS011;8182;55.648;13.208;2022-07-23T07:41:49;2.20;;;1.40;;
16153;SDS011;8182;55.648;13.208;2022-07-23T07:44:16;1.87;;;1.20;;
16153;SDS011;8182;55.648;13.208;2022-07-23T07:46:43;1.87;;;1.17;;
16153;SDS011;8182;55.648;13.208;2022-07-23T07:49:09;1.63;;;1.10;;
16153;SDS011;8182;55.648;13.208;2022-07-23T07:51:46;1.63;;;1.20;;
16153;SDS011;8182;55.648;13.208;2022-07-23T07:54:13;1.10;;;1.00;;
16153;SDS011;8182;55.648;13.208;2022-07-23T07:56:40;1.67;;;1.30;;
16153;SDS011;8182;55.648;13.208;2022-07-23T07:59:09;2.73;;;1.20;;
16153;SDS011;8182;55.648;13.208;2022-07-23T08:01:37;2.43;;;1.50;;
16153;SDS011;8182;55.648;13.208;2022-07-23T08:04:04;1.50;;;1.37;;
16153;SDS011;8182;55.648;13.208;2022-07-23T08:06:31;1.97;;;1.50;;
16153;SDS011;8182;55.648;13.208;2022-07-23T08:08:58;3.33;;;1.60;;
16153;SDS011;8182;55.648;13.208;2022-07-23T08:11:25;3.27;;;1.70;;
16153;SDS011;8182;55.648;13.208;2022-07-23T08:13:52;2.17;;;1.50;;
16153;SDS011;8182;55.648;13.208;2022-07-23T08:16:20;3.30;;;1.40;;
16153;SDS011;8182;55.648;13.208;2022-07-23T08:18:57;3.73;;;1.50;;
16153;SDS011;8182;55.648;13.208;2022-07-23T08:21:26;4.77;;;1.70;;
16153;SDS011;8182;55.648;13.208;2022-07-23T08:23:53;5.97;;;2.10;;
16153;SDS011;8182;55.648;13.208;2022-07-23T08:26:23;4.10;;;1.60;;
16153;SDS011;8182;55.648;13.208;2022-07-23T08:28:50;3.27;;;1.67;;
16153;SDS011;8182;55.648;13.208;2022-07-23T08:31:17;4.70;;;1.57;;
16153;SDS011;8182;55.648;13.208;2022-07-23T08:33:46;2.03;;;1.43;;
16153;SDS011;8182;55.648;13.208;2022-07-23T08:36:13;3.57;;;1.40;;
16153;SDS011;8182;55.648;13.208;2022-07-23T08:38:40;3.03;;;1.60;;
16153;SDS011;8182;55.648;13.208;2022-07-23T08:41:08;3.07;;;1.20;;
16153;SDS011;8182;55.648;13.208;2022-07-23T08:43:35;3.47;;;1.40;;
16153;SDS011;8182;55.648;13.208;2022-07-23T08:46:03;3.23;;;1.40;;
16153;SDS011;8182;55.648;13.208;2022-07-23T08:48:32;3.33;;;1.27;;
16153;SDS011;8182;55.648;13.208;2022-07-23T08:51:08;3.97;;;1.40;;
16153;SDS011;8182;55.648;13.208;2022-07-23T08:53:35;3.80;;;1.53;;
16153;SDS011;8182;55.648;13.208;2022-07-23T08:56:05;2.90;;;1.70;;
16153;SDS011;8182;55.648;13.208;2022-07-23T08:58:32;3.40;;;1.40;;
16153;SDS011;8182;55.648;13.208;2022-07-23T09:01:00;2.57;;;1.43;;
16153;SDS011;8182;55.648;13.208;2022-07-23T09:03:28;2.37;;;1.40;;
16153;SDS011;8182;55.648;13.208;2022-07-23T09:05:57;3.53;;;1.70;;
16153;SDS011;8182;55.648;13.208;2022-07-23T09:08:33;2.00;;;1.30;;
16153;SDS011;8182;55.648;13.208;2022-07-23T09:11:02;3.67;;;1.70;;
16153;SDS011;8182;55.648;13.208;2022-07-23T09:13:31;2.37;;;1.53;;
16153;SDS011;8182;55.648;13.208;2022-07-23T09:16:05;5.53;;;1.70;;
16153;SDS011;8182;55.648;13.208;2022-07-23T09:18:35;4.13;;;1.80;;
16153;SDS011;8182;55.648;13.208;2022-07-23T09:21:21;1.90;;;1.60;;
16153;SDS011;8182;55.648;13.208;2022-07-23T09:23:54;3.30;;;1.77;;
16153;SDS011;8182;55.648;13.208;2022-07-23T09:26:27;2.70;;;1.73;;
16153;SDS011;8182;55.648;13.208;2022-07-23T09:29:08;1.97;;;1.70;;
16153;SDS011;8182;55.648;13.208;2022-07-23T09:31:45;2.03;;;1.50;;
16153;SDS011;8182;55.648;13.208;2022-07-23T09:34:15;4.00;;;1.73;;
16153;SDS011;8182;55.648;13.208;2022-07-23T09:36:44;2.60;;;1.80;;
16153;SDS011;8182;55.648;13.208;2022-07-23T09:39:14;1.97;;;1.67;;
16153;SDS011;8182;55.648;13.208;2022-07-23T09:41:47;3.80;;;2.10;;
16153;SDS011;8182;55.648;13.208;2022-07-23T09:44:17;3.20;;;1.90;;
16153;SDS011;8182;55.648;13.208;2022-07-23T09:46:45;2.33;;;2.03;;
16153;SDS011;8182;55.648;13.208;2022-07-23T09:49:17;4.70;;;2.17;;
16153;SDS011;8182;55.648;13.208;2022-07-23T09:51:47;3.23;;;1.93;;
16153;SDS011;8182;55.648;13.208;2022-07-23T09:54:28;2.40;;;2.20;;
16153;SDS011;8182;55.648;13.208;2022-07-23T09:57:00;2.50;;;2.30;;
16153;SDS011;8182;55.648;13.208;2022-07-23T09:59:34;2.67;;;2.10;;
16153;SDS011;8182;55.648;13.208;2022-07-23T10:02:03;3.47;;;2.30;;
16153;SDS011;8182;55.648;13.208;2022-07-23T10:04:31;3.77;;;2.20;;
16153;SDS011;8182;55.648;13.208;2022-07-23T10:07:00;3.93;;;2.30;;
16153;SDS011;8182;55.648;13.208;2022-07-23T10:09:30;2.33;;;1.90;;
16153;SDS011;8182;55.648;13.208;2022-07-23T10:11:59;2.43;;;2.00;;
16153;SDS011;8182;55.648;13.208;2022-07-23T10:14:35;2.50;;;1.77;;
16153;SDS011;8182;55.648;13.208;2022-07-23T10:17:03;2.07;;;1.60;;
16153;SDS011;8182;55.648;13.208;2022-07-23T10:19:30;3.67;;;1.40;;
16153;SDS011;8182;55.648;13.208;2022-07-23T10:21:58;1.60;;;1.40;;
16153;SDS011;8182;55.648;13.208;2022-07-23T10:24:38;2.27;;;1.40;;
16153;SDS011;8182;55.648;13.208;2022-07-23T10:27:20;1.30;;;1.13;;
16153;SDS011;8182;55.648;13.208;2022-07-23T10:30:00;1.10;;;1.00;;
16153;SDS011;8182;55.648;13.208;2022-07-23T10:32:35;2.57;;;1.13;;
16153;SDS011;8182;55.648;13.208;2022-07-23T10:35:07;1.70;;;1.23;;
16153;SDS011;8182;55.648;13.208;2022-07-23T10:37:39;2.93;;;1.00;;
16153;SDS011;8182;55.648;13.208;2022-07-23T10:40:15;24.97;;;5.30;;
16153;SDS011;8182;55.648;13.208;2022-07-23T10:42:43;26.07;;;5.53;;
16153;SDS011;8182;55.648;13.208;2022-07-23T10:45:25;2.73;;;1.10;;
16153;SDS011;8182;55.648;13.208;2022-07-23T10:47:54;1.63;;;1.10;;
16153;SDS011;8182;55.648;13.208;2022-07-23T10:50:23;11.90;;;2.93;;
16153;SDS011;8182;55.648;13.208;2022-07-23T10:53:08;12.17;;;2.77;;
16153;SDS011;8182;55.648;13.208;2022-07-23T10:55:40;2.43;;;1.60;;
16153;SDS011;8182;55.648;13.208;2022-07-23T10:58:22;1.40;;;1.10;;
16153;SDS011;8182;55.648;13.208;2022-07-23T11:04:00;1.33;;;1.20;;
16153;SDS011;8182;55.648;13.208;2022-07-23T11:09:30;1.80;;;1.30;;
16153;SDS011;8182;55.648;13.208;2022-07-23T11:15:05;1.57;;;1.47;;
16153;SDS011;8182;55.648;13.208;2022-07-23T11:17:36;1.90;;;1.80;;
16153;SDS011;8182;55.648;13.208;2022-07-23T11:20:25;3.37;;;2.20;;
16153;SDS011;8182;55.648;13.208;2022-07-23T11:22:54;10.17;;;3.27;;
16153;SDS011;8182;55.648;13.208;2022-07-23T11:25:29;27.77;;;5.77;;
16153;SDS011;8182;55.648;13.208;2022-07-23T11:28:12;23.17;;;5.73;;
16153;SDS011;8182;55.648;13.208;2022-07-23T11:30:42;9.43;;;3.37;;
16153;SDS011;8182;55.648;13.208;2022-07-23T11:33:20;4.47;;;2.83;;
16153;SDS011;8182;55.648;13.208;2022-07-23T11:35:49;3.13;;;2.83;;
16153;SDS011;8182;55.648;13.208;2022-07-23T11:38:27;4.10;;;3.73;;
16153;SDS011;8182;55.648;13.208;2022-07-23T11:40:56;3.13;;;2.80;;
16153;SDS011;8182;55.648;13.208;2022-07-23T11:43:24;2.53;;;2.33;;
16153;SDS011;8182;55.648;13.208;2022-07-23T11:45:52;4.33;;;2.80;;
16153;SDS011;8182;55.648;13.208;2022-07-23T11:48:22;2.90;;;2.70;;
16153;SDS011;8182;55.648;13.208;2022-07-23T11:50:51;3.00;;;2.70;;
16153;SDS011;8182;55.648;13.208;2022-07-23T11:53:23;3.10;;;2.80;;
16153;SDS011;8182;55.648;13.208;2022-07-23T11:55:50;4.37;;;3.20;;
16153;SDS011;8182;55.648;13.208;2022-07-23T11:58:17;3.60;;;3.30;;
16153;SDS011;8182;55.648;13.208;2022-07-23T12:00:45;3.87;;;3.20;;
16153;SDS011;8182;55.648;13.208;2022-07-23T12:03:12;3.33;;;3.03;;
16153;SDS011;8182;55.648;13.208;2022-07-23T12:05:40;5.03;;;2.70;;
16153;SDS011;8182;55.648;13.208;2022-07-23T12:08:08;3.10;;;2.70;;
16153;SDS011;8182;55.648;13.208;2022-07-23T12:10:37;2.80;;;2.23;;
16153;SDS011;8182;55.648;13.208;2022-07-23T12:13:09;2.80;;;2.13;;
16153;SDS011;8182;55.648;13.208;2022-07-23T12:15:37;2.80;;;2.27;;
16153;SDS011;8182;55.648;13.208;2022-07-23T12:18:07;2.77;;;2.20;;
16153;SDS011;8182;55.648;13.208;2022-07-23T12:20:37;3.63;;;2.10;;
16153;SDS011;8182;55.648;13.208;2022-07-23T12:23:09;3.63;;;2.40;;
16153;SDS011;8182;55.648;13.208;2022-07-23T12:25:38;2.50;;;2.30;;
16153;SDS011;8182;55.648;13.208;2022-07-23T12:28:07;2.60;;;2.40;;
16153;SDS011;8182;55.648;13.208;2022-07-23T12:30:37;2.90;;;2.60;;
16153;SDS011;8182;55.648;13.208;2022-07-23T12:33:05;3.00;;;2.70;;
16153;SDS011;8182;55.648;13.208;2022-07-23T12:35:36;3.70;;;2.20;;
16153;SDS011;8182;55.648;13.208;2022-07-23T12:38:06;2.50;;;1.90;;
16153;SDS011;8182;55.648;13.208;2022-07-23T12:40:36;1.97;;;1.53;;
16153;SDS011;8182;55.648;13.208;2022-07-23T12:43:09;2.00;;;1.80;;
16153;SDS011;8182;55.648;13.208;2022-07-23T12:45:42;3.30;;;1.60;;
16153;SDS011;8182;55.648;13.208;2022-07-23T12:48:18;1.60;;;1.50;;
16153;SDS011;8182;55.648;13.208;2022-07-23T12:50:53;1.50;;;1.40;;
16153;SDS011;8182;55.648;13.208;2022-07-23T12:53:23;1.90;;;1.30;;
16153;SDS011;8182;55.648;13.208;2022-07-23T12:56:00;3.40;;;1.20;;
16153;SDS011;8182;55.648;13.208;2022-07-23T12:58:39;1.40;;;1.30;;
16153;SDS011;8182;55.648;13.208;2022-07-23T13:01:07;1.50;;;1.33;;
16153;SDS011;8182;55.648;13.208;2022-07-23T13:03:36;1.33;;;1.20;;
16153;SDS011;8182;55.648;13.208;2022-07-23T13:06:05;1.40;;;1.27;;
16153;SDS011;8182;55.648;13.208;2022-07-23T13:08:35;1.20;;;1.10;;
16153;SDS011;8182;55.648;13.208;2022-07-23T13:11:03;1.27;;;1.00;;
16153;SDS011;8182;55.648;13.208;2022-07-23T13:13:32;1.13;;;1.10;;
16153;SDS011;8182;55.648;13.208;2022-07-23T13:16:01;2.17;;;1.07;;
16153;SDS011;8182;55.648;13.208;2022-07-23T13:18:29;2.27;;;1.30;;
16153;SDS011;8182;55.648;13.208;2022-07-23T13:20:56;1.43;;;1.20;;
16153;SDS011;8182;55.648;13.208;2022-07-23T13:23:23;1.20;;;1.10;;
16153;SDS011;8182;55.648;13.208;2022-07-23T13:25:51;1.20;;;1.10;;
16153;SDS011;8182;55.648;13.208;2022-07-23T13:28:18;1.27;;;1.00;;
16153;SDS011;8182;55.648;13.208;2022-07-23T13:30:46;2.70;;;1.10;;
16153;SDS011;8182;55.648;13.208;2022-07-23T13:33:16;2.07;;;1.40;;
16153;SDS011;8182;55.648;13.208;2022-07-23T13:35:46;1.63;;;1.00;;
16153;SDS011;8182;55.648;13.208;2022-07-23T13:38:18;1.10;;;1.00;;
16153;SDS011;8182;55.648;13.208;2022-07-23T13:40:47;0.90;;;0.90;;
16153;SDS011;8182;55.648;13.208;2022-07-23T13:43:18;1.23;;;1.17;;
16153;SDS011;8182;55.648;13.208;2022-07-23T13:45:47;2.07;;;1.00;;
16153;SDS011;8182;55.648;13.208;2022-07-23T13:48:15;2.13;;;1.20;;
16153;SDS011;8182;55.648;13.208;2022-07-23T13:50:43;2.10;;;1.07;;
16153;SDS011;8182;55.648;13.208;2022-07-23T13:53:20;1.30;;;0.90;;
16153;SDS011;8182;55.648;13.208;2022-07-23T13:55:49;1.47;;;1.23;;
16153;SDS011;8182;55.648;13.208;2022-07-23T13:58:19;1.60;;;1.20;;
16153;SDS011;8182;55.648;13.208;2022-07-23T14:00:48;1.50;;;1.20;;
16153;SDS011;8182;55.648;13.208;2022-07-23T14:03:17;1.47;;;1.33;;
16153;SDS011;8182;55.648;13.208;2022-07-23T14:05:45;1.80;;;1.20;;
16153;SDS011;8182;55.648;13.208;2022-07-23T14:08:12;1.50;;;1.07;;
16153;SDS011;8182;55.648;13.208;2022-07-23T14:10:39;4.03;;;1.40;;
16153;SDS011;8182;55.648;13.208;2022-07-23T14:13:06;2.00;;;1.20;;
16153;SDS011;8182;55.648;13.208;2022-07-23T14:15:34;1.80;;;1.10;;
16153;SDS011;8182;55.648;13.208;2022-07-23T14:18:03;2.27;;;1.20;;
16153;SDS011;8182;55.648;13.208;2022-07-23T14:20:30;3.80;;;1.90;;
16153;SDS011;8182;55.648;13.208;2022-07-23T14:22:57;1.30;;;1.20;;
16153;SDS011;8182;55.648;13.208;2022-07-23T14:25:25;1.20;;;1.10;;
16153;SDS011;8182;55.648;13.208;2022-07-23T14:27:55;1.27;;;1.07;;
16153;SDS011;8182;55.648;13.208;2022-07-23T14:30:22;1.23;;;1.00;;
16153;SDS011;8182;55.648;13.208;2022-07-23T14:32:51;1.07;;;1.00;;
16153;SDS011;8182;55.648;13.208;2022-07-23T14:35:19;1.67;;;1.20;;
16153;SDS011;8182;55.648;13.208;2022-07-23T14:37:46;3.07;;;1.20;;
16153;SDS011;8182;55.648;13.208;2022-07-23T14:40:13;1.63;;;1.00;;
16153;SDS011;8182;55.648;13.208;2022-07-23T14:42:40;1.10;;;1.00;;
16153;SDS011;8182;55.648;13.208;2022-07-23T14:45:07;1.30;;;1.20;;
16153;SDS011;8182;55.648;13.208;2022-07-23T14:47:35;1.63;;;1.10;;
16153;SDS011;8182;55.648;13.208;2022-07-23T14:50:04;1.93;;;1.00;;
16153;SDS011;8182;55.648;13.208;2022-07-23T14:52:32;2.50;;;1.40;;
16153;SDS011;8182;55.648;13.208;2022-07-23T14:54:59;1.37;;;1.27;;
16153;SDS011;8182;55.648;13.208;2022-07-23T14:57:26;1.40;;;1.30;;
16153;SDS011;8182;55.648;13.208;2022-07-23T14:59:53;2.23;;;1.50;;
16153;SDS011;8182;55.648;13.208;2022-07-23T15:02:20;3.53;;;1.53;;
16153;SDS011;8182;55.648;13.208;2022-07-23T15:04:47;2.70;;;1.40;;